createdAt,value
2022-09-02T00:02:12.513Z,101317.91
2022-09-02T00:04:40.686Z,101325.38
2022-09-02T00:07:09.051Z,101315.56
2022-09-02T00:09:37.707Z,101311.41
2022-09-02T00:12:06.855Z,101316.72
2022-09-02T00:14:39.505Z,101321.34
2022-09-02T00:17:07.561Z,101308.69
2022-09-02T00:19:36.156Z,101305.47
2022-09-02T00:22:05.165Z,101310.16
2022-09-02T00:24:33.469Z,101311.81
2022-09-02T00:27:01.609Z,101300.13
2022-09-02T00:29:30.127Z,101299.16
2022-09-02T00:32:00.412Z,101298.53
2022-09-02T00:34:28.712Z,101303.88
2022-09-02T00:36:56.907Z,101309.47
2022-09-02T00:39:26.189Z,101306.88
2022-09-02T00:41:54.343Z,101299.78
2022-09-02T00:44:22.795Z,101289.66
2022-09-02T00:46:51.025Z,101294.38
2022-09-02T00:49:25.476Z,101299.13
2022-09-02T00:51:58.645Z,101295.88
2022-09-02T00:54:30.505Z,101291.31
2022-09-02T00:56:59.874Z,101292.41
2022-09-02T00:59:42.176Z,101287.84
2022-09-02T01:02:10.449Z,101288.22
2022-09-02T01:04:40.560Z,101289.72
2022-09-02T01:07:09.594Z,101287.22
2022-09-02T01:09:37.964Z,101289.19
2022-09-02T01:12:07.123Z,101285.50
2022-09-02T01:14:35.551Z,101279.69
2022-09-02T01:17:05.284Z,101288.00
2022-09-02T01:19:37.774Z,101281.44
2022-09-02T01:22:19.685Z,101288.50
2022-09-02T01:24:47.713Z,101283.28
2022-09-02T01:27:18.378Z,101282.31
2022-09-02T01:29:53.972Z,101290.72
2022-09-02T01:32:22.512Z,101291.47
2022-09-02T01:34:50.740Z,101281.34
2022-09-02T01:37:21.416Z,101282.56
2022-09-02T01:39:50.708Z,101278.25
2022-09-02T01:42:19.498Z,101277.09
2022-09-02T01:44:47.792Z,101271.06
2022-09-02T01:47:19.309Z,101274.41
2022-09-02T01:49:48.220Z,101266.47
2022-09-02T01:52:18.053Z,101263.00
2022-09-02T01:54:48.650Z,101267.47
2022-09-02T01:57:17.286Z,101261.38
2022-09-02T01:59:46.270Z,101266.97
2022-09-02T02:02:18.255Z,101260.53
2022-09-02T02:04:46.748Z,101256.94
2022-09-02T02:07:16.350Z,101254.56
2022-09-02T02:09:44.958Z,101260.72
2022-09-02T02:12:17.537Z,101259.84
2022-09-02T02:14:45.987Z,101256.28
2022-09-02T02:17:14.167Z,101258.88
2022-09-02T02:19:43.783Z,101258.25
2022-09-02T02:22:14.088Z,101257.88
2022-09-02T02:24:42.127Z,101257.72
2022-09-02T02:27:10.109Z,101258.84
2022-09-02T02:29:40.105Z,101254.03
2022-09-02T02:32:08.606Z,101252.75
2022-09-02T02:34:37.272Z,101251.53
2022-09-02T02:37:06.032Z,101255.47
2022-09-02T02:39:34.294Z,101255.47
2022-09-02T02:42:02.740Z,101253.25
2022-09-02T02:44:31.582Z,101257.81
2022-09-02T02:47:02.395Z,101259.44
2022-09-02T02:49:30.591Z,101255.00
2022-09-02T02:51:58.863Z,101256.22
2022-09-02T02:54:27.473Z,101255.09
2022-09-02T02:57:04.284Z,101253.59
2022-09-02T02:59:32.762Z,101254.94
2022-09-02T03:02:02.240Z,101249.47
2022-09-02T03:04:30.439Z,101258.00
2022-09-02T03:06:58.682Z,101246.41
2022-09-02T03:09:27.543Z,101247.28
2022-09-02T03:11:55.990Z,101251.31
2022-09-02T03:14:24.771Z,101246.72
2022-09-02T03:16:53.593Z,101244.28
2022-09-02T03:19:23.172Z,101246.53
2022-09-02T03:21:51.818Z,101242.53
2022-09-02T03:24:20.009Z,101244.03
2022-09-02T03:26:48.332Z,101246.00
2022-09-02T03:29:17.116Z,101242.19
2022-09-02T03:31:46.174Z,101240.34
2022-09-02T03:34:14.693Z,101230.41
2022-09-02T03:36:45.190Z,101245.25
2022-09-02T03:39:15.805Z,101239.94
2022-09-02T03:41:45.595Z,101235.69
2022-09-02T03:44:13.879Z,101241.00
2022-09-02T03:46:43.342Z,101232.91
2022-09-02T03:49:12.604Z,101235.81
2022-09-02T03:51:44.002Z,101231.69
2022-09-02T03:54:12.546Z,101230.94
2022-09-02T03:56:42.087Z,101233.19
2022-09-02T03:59:11.110Z,101232.34
2022-09-02T04:01:39.865Z,101231.34
2022-09-02T04:04:08.654Z,101233.03
2022-09-02T04:06:39.085Z,101240.28
2022-09-02T04:09:08.568Z,101226.28
2022-09-02T04:11:42.678Z,101230.47
2022-09-02T04:14:12.395Z,101230.72
2022-09-02T04:16:41.115Z,101220.50
2022-09-02T04:19:10.511Z,101230.72
2022-09-02T04:21:41.852Z,101227.78
2022-09-02T04:24:13.592Z,101225.44
2022-09-02T04:26:46.116Z,101220.94
2022-09-02T04:29:17.194Z,101221.59
2022-09-02T04:31:48.808Z,101225.06
2022-09-02T04:34:17.175Z,101216.41
2022-09-02T04:36:45.785Z,101220.91
2022-09-02T04:39:16.332Z,101221.94
2022-09-02T04:41:45.409Z,101216.91
2022-09-02T04:44:15.190Z,101218.25
2022-09-02T04:46:48.455Z,101217.63
2022-09-02T04:49:21.212Z,101220.09
2022-09-02T04:51:54.400Z,101225.31
2022-09-02T04:57:34.962Z,101218.13
2022-09-02T05:00:06.804Z,101215.53
2022-09-02T05:02:35.633Z,101221.50
2022-09-02T05:05:03.927Z,101218.13
2022-09-02T05:07:38.429Z,101219.22
2022-09-02T05:10:09.344Z,101216.81
2022-09-02T05:12:41.947Z,101217.47
2022-09-02T05:15:12.236Z,101220.50
2022-09-02T05:17:40.664Z,101224.75
2022-09-02T05:20:10.627Z,101226.41
2022-09-02T05:22:39.919Z,101221.94
2022-09-02T05:25:11.906Z,101216.81
2022-09-02T05:27:40.339Z,101221.59
2022-09-02T05:30:10.110Z,101224.91
2022-09-02T05:32:38.302Z,101218.94
2022-09-02T05:35:08.195Z,101226.03
2022-09-02T05:37:37.625Z,101227.38
2022-09-02T05:40:09.074Z,101226.16
2022-09-02T05:42:41.517Z,101228.88
2022-09-02T05:45:12.060Z,101229.63
2022-09-02T05:47:44.693Z,101223.69
2022-09-02T05:50:15.084Z,101229.88
2022-09-02T05:52:46.386Z,101221.47
2022-09-02T05:55:14.411Z,101225.19
2022-09-02T05:57:46.145Z,101222.59
2022-09-02T06:00:17.954Z,101225.59
2022-09-02T06:02:59.195Z,101218.78
2022-09-02T06:05:38.413Z,101215.56
2022-09-02T06:08:20.256Z,101218.31
2022-09-02T06:10:48.564Z,101217.59
2022-09-02T06:13:22.807Z,101219.59
2022-09-02T06:15:53.553Z,101214.53
2022-09-02T06:18:26.804Z,101217.00
2022-09-02T06:20:57.093Z,101209.69
2022-09-02T06:23:29.343Z,101215.66
2022-09-02T06:26:01.420Z,101215.66
2022-09-02T06:28:32.270Z,101217.75
2022-09-02T06:31:01.899Z,101220.34
2022-09-02T06:33:30.120Z,101225.78
2022-09-02T06:35:59.405Z,101225.78
2022-09-02T06:38:27.645Z,101223.56
2022-09-02T06:40:56.725Z,101222.59
2022-09-02T06:43:42.709Z,101220.47
2022-09-02T06:46:26.768Z,101219.22
2022-09-02T06:49:01.540Z,101225.06
2022-09-02T06:51:33.563Z,101221.72
2022-09-02T06:55:11.906Z,101226.81
2022-09-02T06:57:41.159Z,101218.50
2022-09-02T07:00:16.660Z,101224.84
2022-09-02T07:03:04.876Z,101232.59
2022-09-02T07:05:34.457Z,101221.38
2022-09-02T07:08:02.561Z,101211.72
2022-09-02T07:10:30.727Z,101216.38
2022-09-02T07:13:03.661Z,101217.47
2022-09-02T07:15:36.463Z,101220.06
2022-09-02T07:18:57.333Z,101211.72
2022-09-02T07:21:29.173Z,101204.22
2022-09-02T07:23:59.667Z,101203.88
2022-09-02T07:26:29.651Z,101202.88
2022-09-02T07:28:58.509Z,101203.63
2022-09-02T07:31:29.414Z,101198.75
2022-09-02T07:33:59.474Z,101202.00
2022-09-02T07:36:29.237Z,101196.53
2022-09-02T07:38:59.233Z,101204.19
2022-09-02T07:41:30.116Z,101205.06
2022-09-02T07:43:59.846Z,101191.41
2022-09-02T07:46:32.269Z,101198.03
2022-09-02T07:49:01.056Z,101200.13
2022-09-02T07:51:30.719Z,101195.19
2022-09-02T07:54:00.685Z,101197.09
2022-09-02T07:56:29.236Z,101194.31
2022-09-02T07:58:58.029Z,101192.88
2022-09-02T08:01:26.846Z,101196.91
2022-09-02T08:03:59.371Z,101198.25
2022-09-02T08:06:34.697Z,101202.84
2022-09-02T08:09:04.712Z,101197.84
2022-09-02T08:11:33.825Z,101195.06
2022-09-02T08:14:03.210Z,101190.34
2022-09-02T08:16:31.822Z,101191.19
2022-09-02T08:19:01.542Z,101192.47
2022-09-02T08:21:29.751Z,101192.19
2022-09-02T08:23:58.975Z,101197.53
2022-09-02T08:26:28.458Z,101189.78
2022-09-02T08:28:56.910Z,101187.63
2022-09-02T08:31:26.195Z,101190.53
2022-09-02T08:33:54.494Z,101189.81
2022-09-02T08:36:23.993Z,101186.75
2022-09-02T08:38:52.223Z,101188.38
2022-09-02T08:41:23.453Z,101182.16
2022-09-02T08:43:54.051Z,101187.78
2022-09-02T08:46:26.018Z,101183.88
2022-09-02T08:48:59.420Z,101182.13
2022-09-02T08:51:37.621Z,101188.50
2022-09-02T08:54:10.949Z,101181.88
2022-09-02T08:56:42.607Z,101177.84
2022-09-02T08:59:13.118Z,101176.56
2022-09-02T09:01:49.532Z,101170.63
2022-09-02T09:04:22.073Z,101168.00
2022-09-02T09:07:12.870Z,101168.84
2022-09-02T09:09:55.142Z,101167.31
2022-09-02T09:12:34.369Z,101174.72
2022-09-02T09:15:10.560Z,101168.94
2022-09-02T09:17:45.801Z,101165.63
2022-09-02T09:20:19.688Z,101172.13
2022-09-02T09:22:52.202Z,101163.28
2022-09-02T09:25:20.783Z,101168.22
2022-09-02T09:27:48.919Z,101160.06
2022-09-02T09:30:17.840Z,101163.19
2022-09-02T09:32:49.040Z,101157.25
2022-09-02T09:35:18.091Z,101143.47
2022-09-02T09:37:48.153Z,101137.97
2022-09-02T09:40:32.350Z,101138.19
2022-09-02T09:43:15.170Z,101138.53
2022-09-02T09:45:45.767Z,101135.38
2022-09-02T09:48:27.917Z,101137.44
2022-09-02T09:51:17.306Z,101130.97
2022-09-02T09:53:46.362Z,101128.28
2022-09-02T09:56:37.602Z,101130.34
2022-09-02T09:59:10.136Z,101129.84
2022-09-02T10:01:38.517Z,101127.38
2022-09-02T10:04:26.233Z,101127.72
2022-09-02T10:06:58.503Z,101128.72
2022-09-02T10:09:32.621Z,101130.97
2022-09-02T10:12:05.195Z,101125.06
2022-09-02T10:14:39.219Z,101131.22
2022-09-02T10:17:26.151Z,101128.63
2022-09-02T10:20:01.156Z,101116.66
2022-09-02T10:23:01.934Z,101122.63
2022-09-02T10:25:38.564Z,101119.50
2022-09-02T10:28:22.799Z,101118.22
2022-09-02T10:30:59.833Z,101110.84
2022-09-02T10:33:36.181Z,101107.03
2022-09-02T10:36:14.001Z,101108.94
2022-09-02T10:38:47.855Z,101109.16
2022-09-02T10:41:27.643Z,101099.91
2022-09-02T10:44:13.818Z,101092.09
2022-09-02T10:46:54.942Z,101098.00
2022-09-02T10:49:32.889Z,101107.53
2022-09-02T10:52:11.383Z,101105.38
2022-09-02T10:54:50.446Z,101096.75
2022-09-02T10:57:25.649Z,101101.84
2022-09-02T11:00:02.875Z,101106.66
2022-09-02T11:02:38.975Z,101102.19
2022-09-02T11:05:14.045Z,101099.66
2022-09-02T11:07:49.617Z,101098.78
2022-09-02T11:10:23.372Z,101094.94
2022-09-02T11:12:56.746Z,101090.53
2022-09-02T11:15:37.153Z,101093.59
2022-09-02T11:18:15.932Z,101082.66
2022-09-02T11:20:50.851Z,101095.72
2022-09-02T11:23:28.131Z,101085.72
2022-09-02T11:26:03.356Z,101074.88
2022-09-02T11:28:39.669Z,101074.38
2022-09-02T11:31:18.323Z,101076.94
2022-09-02T11:33:54.486Z,101084.03
2022-09-02T11:36:23.068Z,101079.16
2022-09-02T11:38:58.589Z,101074.72
2022-09-02T11:41:35.870Z,101081.06
2022-09-02T11:44:22.547Z,101074.72
2022-09-02T11:47:08.075Z,101070.59
2022-09-02T11:50:11.147Z,101062.66
2022-09-02T11:52:58.096Z,101071.78
2022-09-02T11:55:33.244Z,101067.84
2022-09-02T11:58:02.875Z,101059.25
2022-09-02T12:00:34.753Z,101066.28
2022-09-02T12:03:43.057Z,101051.28
2022-09-02T12:06:13.913Z,101047.50
2022-09-02T12:09:06.674Z,101047.97
2022-09-02T12:11:45.571Z,101042.47
2022-09-02T12:15:07.261Z,101050.53
2022-09-02T12:17:55.236Z,101041.31
2022-09-02T12:21:15.973Z,101040.41
2022-09-02T12:24:26.499Z,101037.03
2022-09-02T12:27:25.370Z,101031.00
2022-09-02T12:29:55.608Z,101041.75
2022-09-02T12:33:09.721Z,101037.00
2022-09-02T12:35:57.782Z,101027.00
2022-09-02T12:38:31.351Z,101034.84
2022-09-02T12:41:13.302Z,101032.38
2022-09-02T12:43:53.789Z,101024.28
2022-09-02T12:46:29.592Z,101032.91
2022-09-02T12:49:05.609Z,101024.72
2022-09-02T12:51:56.491Z,101012.16
2022-09-02T12:54:31.192Z,101019.94
2022-09-02T12:57:00.021Z,101018.81
2022-09-02T12:59:31.392Z,101010.31
2022-09-02T13:02:17.034Z,101011.88
2022-09-02T13:04:57.854Z,101008.66
2022-09-02T13:07:59.833Z,101002.47
2022-09-02T13:11:04.734Z,101002.44
2022-09-02T13:14:13.839Z,101002.91
2022-09-02T13:16:53.789Z,100997.28
2022-09-02T13:19:51.353Z,100993.03
2022-09-02T13:23:11.822Z,100993.25
2022-09-02T13:26:05.597Z,100991.66
2022-09-02T13:29:15.080Z,100996.34
2022-09-02T13:31:43.639Z,100993.41
2022-09-02T13:34:14.684Z,100994.53
2022-09-02T13:36:45.758Z,100982.03
2022-09-02T13:39:18.225Z,100986.03
2022-09-02T13:41:46.454Z,100983.13
2022-09-02T13:44:22.623Z,100977.75
2022-09-02T13:46:54.224Z,100972.75
2022-09-02T13:49:24.924Z,100972.81
2022-09-02T13:51:55.074Z,100967.69
2022-09-02T13:54:34.969Z,100965.53
2022-09-02T13:57:06.115Z,100976.38
2022-09-02T13:59:40.895Z,100963.06
2022-09-02T14:02:21.969Z,100962.56
2022-09-02T14:04:53.457Z,100963.59
2022-09-02T14:07:31.630Z,100961.84
2022-09-02T14:10:04.062Z,100964.31
2022-09-02T14:12:35.058Z,100959.16
2022-09-02T14:15:03.797Z,100951.69
2022-09-02T14:17:36.257Z,100945.97
2022-09-02T14:20:17.844Z,100949.94
2022-09-02T14:22:53.280Z,100942.03
2022-09-02T14:25:27.241Z,100939.03
2022-09-02T14:27:58.126Z,100929.84
2022-09-02T14:30:34.972Z,100931.59
2022-09-02T14:33:27.398Z,100928.56
2022-09-02T14:36:00.965Z,100925.41
2022-09-02T14:38:32.392Z,100918.91
2022-09-02T14:41:03.940Z,100917.44
2022-09-02T14:43:47.599Z,100910.88
2022-09-02T14:46:25.298Z,100911.06
2022-09-02T14:49:00.673Z,100906.63
2022-09-02T14:51:36.119Z,100905.59
2022-09-02T14:54:05.732Z,100911.44
2022-09-02T14:56:56.973Z,100902.91
2022-09-02T14:59:27.298Z,100906.91
2022-09-02T15:01:58.385Z,100904.16
2022-09-02T15:04:27.705Z,100897.28
2022-09-02T15:06:56.929Z,100893.03
2022-09-02T15:09:25.458Z,100888.19
2022-09-02T15:12:02.661Z,100885.81
2022-09-02T15:14:31.341Z,100882.84
2022-09-02T15:16:59.766Z,100886.03
2022-09-02T15:19:27.971Z,100876.66
2022-09-02T15:21:56.268Z,100879.53
2022-09-02T15:24:24.585Z,100884.47
2022-09-02T15:26:53.157Z,100887.69
2022-09-02T15:29:26.945Z,100878.75
2022-09-02T15:31:59.891Z,100877.50
2022-09-02T15:34:27.966Z,100871.78
2022-09-02T15:36:57.306Z,100880.19
2022-09-02T15:39:26.005Z,100874.75
2022-09-02T15:41:55.363Z,100876.00
2022-09-02T15:44:25.935Z,100879.50
2022-09-02T15:46:54.345Z,100882.41
2022-09-02T15:49:23.642Z,100878.97
2022-09-02T15:51:55.194Z,100874.38
2022-09-02T15:54:24.865Z,100875.66
2022-09-02T15:56:57.060Z,100874.03
2022-09-02T15:59:28.176Z,100866.19
2022-09-02T16:01:58.827Z,100865.44
2022-09-02T16:04:29.380Z,100864.97
2022-09-02T16:06:57.649Z,100850.81
2022-09-02T16:09:26.354Z,100853.59
2022-09-02T16:11:56.155Z,100857.09
2022-09-02T16:14:27.597Z,100854.94
2022-09-02T16:16:57.505Z,100846.72
2022-09-02T16:19:29.987Z,100843.78
2022-09-02T16:21:59.082Z,100848.28
2022-09-02T16:24:27.687Z,100846.16
2022-09-02T16:26:55.781Z,100840.94
2022-09-02T16:29:24.222Z,100839.59
2022-09-02T16:32:07.866Z,100840.47
2022-09-02T16:34:42.380Z,100837.72
2022-09-02T16:37:10.494Z,100835.28
2022-09-02T16:39:38.923Z,100831.53
2022-09-02T16:42:07.310Z,100832.41
2022-09-02T16:44:35.812Z,100835.22
2022-09-02T16:47:05.540Z,100833.50
2022-09-02T16:49:34.827Z,100825.53
2022-09-02T16:52:03.096Z,100827.16
2022-09-02T16:54:32.960Z,100825.28
2022-09-02T16:57:03.756Z,100818.31
2022-09-02T16:59:31.892Z,100821.72
2022-09-02T17:02:00.330Z,100822.13
2022-09-02T17:04:30.102Z,100816.47
2022-09-02T17:06:58.367Z,100822.13
2022-09-02T17:09:26.677Z,100821.13
2022-09-02T17:11:55.002Z,100812.69
2022-09-02T17:14:23.440Z,100821.81
2022-09-02T17:16:52.864Z,100818.06
2022-09-02T17:19:22.729Z,100819.91
2022-09-02T17:21:53.848Z,100816.94
2022-09-02T17:24:24.379Z,100823.06
2022-09-02T17:26:56.018Z,100815.19
2022-09-02T17:29:48.174Z,100822.44
2022-09-02T17:32:16.873Z,100821.69
2022-09-02T17:34:45.689Z,100825.38
2022-09-02T17:37:15.259Z,100817.69
2022-09-02T17:39:43.690Z,100823.47
2022-09-02T17:42:12.134Z,100833.28
2022-09-02T17:44:40.584Z,100826.41
2022-09-02T17:47:10.544Z,100824.53
2022-09-02T17:49:42.353Z,100823.00
2022-09-02T17:52:11.468Z,100821.44
2022-09-02T17:54:42.680Z,100821.53
2022-09-02T17:57:25.536Z,100819.78
2022-09-02T18:00:06.898Z,100817.75
2022-09-02T18:03:13.945Z,100816.38
2022-09-02T18:05:54.765Z,100816.19
2022-09-02T18:08:35.678Z,100818.81
2022-09-02T18:11:07.407Z,100821.56
2022-09-02T18:13:54.430Z,100820.41
2022-09-02T18:16:37.073Z,100807.69
2022-09-02T18:19:13.665Z,100808.38
2022-09-02T18:22:06.261Z,100812.00
2022-09-02T18:25:00.417Z,100819.88
2022-09-02T18:27:41.481Z,100815.25
2022-09-02T18:30:11.769Z,100812.69
2022-09-02T18:32:59.789Z,100813.34
2022-09-02T18:35:39.576Z,100810.59
2022-09-02T18:38:15.962Z,100817.66
2022-09-02T18:40:50.479Z,100819.03
2022-09-02T18:43:26.764Z,100817.97
2022-09-02T18:46:00.932Z,100814.84
2022-09-02T18:48:32.576Z,100820.69
2022-09-02T18:51:06.640Z,100819.47
2022-09-02T18:53:40.498Z,100827.53
2022-09-02T18:56:11.577Z,100826.63
2022-09-02T18:58:45.343Z,100819.75
2022-09-02T19:01:21.599Z,100824.75
2022-09-02T19:03:50.398Z,100821.78
2022-09-02T19:06:21.225Z,100825.69
2022-09-02T19:08:55.250Z,100825.19
2022-09-02T19:11:24.164Z,100832.03
2022-09-02T19:13:56.029Z,100838.88
2022-09-02T19:16:27.964Z,100840.59
2022-09-02T19:18:56.451Z,100834.47
2022-09-02T19:21:34.952Z,100839.38
2022-09-02T19:24:05.309Z,100840.91
2022-09-02T19:26:34.301Z,100842.63
2022-09-02T19:29:04.931Z,100833.00
2022-09-02T19:31:33.370Z,100833.97
2022-09-02T19:34:04.507Z,100838.47
2022-09-02T19:36:34.250Z,100838.47
2022-09-02T19:39:02.405Z,100836.50
2022-09-02T19:41:30.524Z,100842.53
2022-09-02T19:44:00.248Z,100846.78
2022-09-02T19:47:30.791Z,100840.25
2022-09-02T19:49:18.107Z,100842.13
2022-09-02T19:51:47.202Z,100835.56
2022-09-02T19:54:17.880Z,100835.13
2022-09-02T19:56:46.285Z,100830.69
2022-09-02T19:59:14.514Z,100834.94
2022-09-02T20:01:44.154Z,100825.69
2022-09-02T20:04:12.374Z,100828.22
2022-09-02T20:06:43.327Z,100829.00
2022-09-02T20:09:12.726Z,100835.25
2022-09-02T20:11:41.182Z,100837.63
2022-09-02T20:14:09.428Z,100835.53
2022-09-02T20:16:37.534Z,100839.03
2022-09-02T20:19:07.192Z,100830.59
2022-09-02T20:21:42.185Z,100839.44
2022-09-02T20:24:12.257Z,100833.56
2022-09-02T20:26:49.836Z,100833.72
2022-09-02T20:29:34.755Z,100824.28
2022-09-02T20:32:14.222Z,100825.91
2022-09-02T20:34:57.328Z,100821.59
2022-09-02T20:37:36.004Z,100819.88
2022-09-02T20:40:27.260Z,100825.28
2022-09-02T20:43:28.332Z,100817.22
2022-09-02T20:45:59.559Z,100818.88
2022-09-02T20:48:45.128Z,100816.75
2022-09-02T20:51:23.733Z,100809.38
2022-09-02T20:54:08.831Z,100812.69
2022-09-02T20:56:46.842Z,100811.00
2022-09-02T20:59:22.780Z,100812.44
2022-09-02T21:01:56.807Z,100810.41
2022-09-02T21:04:32.823Z,100804.56
2022-09-02T21:07:08.411Z,100801.25
2022-09-02T21:09:43.708Z,100804.56
2022-09-02T21:12:19.764Z,100805.56
2022-09-02T21:14:51.577Z,100811.03
2022-09-02T21:17:28.610Z,100799.38
2022-09-02T21:20:07.861Z,100807.13
2022-09-02T21:22:41.094Z,100804.16
2022-09-02T21:25:13.548Z,100798.38
2022-09-02T21:27:51.947Z,100805.72
2022-09-02T21:30:23.090Z,100797.25
2022-09-02T21:32:53.487Z,100803.03
2022-09-02T21:35:25.440Z,100804.88
2022-09-02T21:38:02.552Z,100805.56
2022-09-02T21:40:49.562Z,100806.34
2022-09-02T21:43:32.277Z,100806.84
2022-09-02T21:46:08.593Z,100799.47
2022-09-02T21:48:50.845Z,100804.09
2022-09-02T21:51:25.722Z,100804.09
2022-09-02T21:54:05.910Z,100799.19
2022-09-02T21:56:50.037Z,100799.22
2022-09-02T21:59:38.557Z,100803.28
2022-09-02T22:02:12.753Z,100804.00
2022-09-02T22:04:56.207Z,100797.56
2022-09-02T22:07:34.985Z,100800.16
2022-09-02T22:10:20.877Z,100794.81
2022-09-02T22:12:52.827Z,100799.00
2022-09-02T22:15:32.100Z,100787.94
2022-09-02T22:18:10.891Z,100790.84
2022-09-02T22:20:43.824Z,100789.97
2022-09-02T22:23:23.851Z,100789.72
2022-09-02T22:25:54.089Z,100782.00
2022-09-02T22:28:31.175Z,100778.22
2022-09-02T22:31:05.543Z,100781.38
2022-09-02T22:33:40.392Z,100776.66
2022-09-02T22:36:14.750Z,100778.84
2022-09-02T22:38:47.061Z,100783.50
2022-09-02T22:41:24.978Z,100780.19
2022-09-02T22:43:57.279Z,100778.94
2022-09-02T22:46:50.882Z,100773.03
2022-09-02T22:49:45.369Z,100782.09
2022-09-02T22:52:44.362Z,100781.22
2022-09-02T22:55:13.727Z,100785.28
2022-09-02T22:57:52.185Z,100774.72
2022-09-02T23:00:24.375Z,100774.69
2022-09-02T23:03:02.391Z,100779.00
2022-09-02T23:05:47.875Z,100774.69
2022-09-02T23:08:17.848Z,100771.34
2022-09-02T23:10:53.430Z,100775.50
2022-09-02T23:13:36.223Z,100769.38
2022-09-02T23:16:11.974Z,100776.81
2022-09-02T23:18:49.278Z,100768.59
2022-09-02T23:21:27.269Z,100775.31
2022-09-02T23:24:04.006Z,100773.19
2022-09-02T23:26:37.831Z,100768.44
2022-09-02T23:29:25.834Z,100768.59
2022-09-02T23:32:33.946Z,100768.00
2022-09-02T23:35:17.346Z,100773.09
2022-09-02T23:38:05.459Z,100767.19
2022-09-02T23:40:40.874Z,100769.81
2022-09-02T23:43:10.000Z,100772.81
2022-09-02T23:45:39.774Z,100765.63
2022-09-02T23:48:20.778Z,100769.06
2022-09-02T23:51:05.492Z,100771.09
2022-09-02T23:53:40.346Z,100763.06
2022-09-02T23:56:21.651Z,100763.34
2022-09-02T23:59:09.209Z,100762.78
